Time;durP1;ratioP1;P1;durP2;ratioP2;P2;SDS_P1;SDS_P2;PMS_P1;PMS_P2;Temp;Humidity;BMP_temperature;BMP_pressure;BME280_temperature;BME280_humidity;BME280_pressure;Samples;Min_cycle;Max_cycle;Signal;HPM_P1;HPM_P2
2023/10/03 00:01:21;;;;;;;41.38;18.70;;;;;;;;;;5085307;28;20235;-73
2023/10/03 00:03:48;;;;;;;39.85;18.75;;;;;;;;;;5080247;28;20312;-73
2023/10/03 00:06:14;;;;;;;40.63;18.45;;;;;;;;;;5079078;28;20697;-72
2023/10/03 00:08:44;;;;;;;35.60;17.80;;;;;;;;;;5087585;28;20662;-73
2023/10/03 00:11:19;;;;;;;37.10;17.77;;;;;;;;;;5088511;28;20615;-73
2023/10/03 00:13:46;;;;;;;39.78;18.00;;;;;;;;;;5088156;28;20202;-73
2023/10/03 00:16:11;;;;;;;37.45;18.30;;;;;;;;;;5080081;28;20191;-72
2023/10/03 00:18:37;;;;;;;36.75;18.15;;;;;;;;;;5102283;28;20250;-73
2023/10/03 00:21:03;;;;;;;34.80;17.70;;;;;;;;;;5089643;28;20210;-73
2023/10/03 00:23:28;;;;;;;42.58;18.70;;;;;;;;;;5089509;28;20296;-74
2023/10/03 00:25:54;;;;;;;40.33;18.33;;;;;;;;;;5089245;28;20211;-73
2023/10/03 00:28:20;;;;;;;35.83;17.52;;;;;;;;;;5087593;28;20199;-73
2023/10/03 00:30:46;;;;;;;35.85;17.67;;;;;;;;;;5055505;28;20550;-73
2023/10/03 00:33:15;;;;;;;40.60;17.88;;;;;;;;;;5089128;28;20211;-73
2023/10/03 00:35:40;;;;;;;43.80;18.15;;;;;;;;;;5088146;28;20589;-73
2023/10/03 00:38:15;;;;;;;35.78;17.73;;;;;;;;;;5100794;28;20187;-73
2023/10/03 00:40:41;;;;;;;41.55;18.23;;;;;;;;;;5088000;28;20190;-73
2023/10/03 00:43:07;;;;;;;37.10;17.67;;;;;;;;;;5083155;28;20192;-73
2023/10/03 00:45:34;;;;;;;33.85;17.13;;;;;;;;;;5068444;28;20585;-73
2023/10/03 00:48:08;;;;;;;38.92;18.23;;;;;;;;;;5059327;28;20253;-73
2023/10/03 00:50:34;;;;;;;37.08;17.98;;;;;;;;;;5079958;28;20198;-73
2023/10/03 00:53:08;;;;;;;40.60;18.88;;;;;;;;;;5069819;28;20188;-73
2023/10/03 00:55:35;;;;;;;38.55;18.00;;;;;;;;;;5088248;28;20187;-73
2023/10/03 00:58:19;;;;;;;33.50;16.80;;;;;;;;;;5087498;28;20190;-73
2023/10/03 01:00:53;;;;;;;34.72;17.25;;;;;;;;;;5069541;28;20686;-73
2023/10/03 01:03:39;;;;;;;39.63;17.92;;;;;;;;;;5057033;28;20308;-73
2023/10/03 01:06:09;;;;;;;36.75;17.77;;;;;;;;;;5044765;28;20217;-72
2023/10/03 01:08:38;;;;;;;40.42;18.00;;;;;;;;;;5046497;28;20706;-72
2023/10/03 01:11:15;;;;;;;36.35;16.40;;;;;;;;;;5046524;28;20624;-72
2023/10/03 01:13:40;;;;;;;35.70;17.52;;;;;;;;;;5048568;28;20228;-73
2023/10/03 01:16:06;;;;;;;40.40;17.98;;;;;;;;;;5045540;28;20225;-70
2023/10/03 01:18:32;;;;;;;35.55;17.10;;;;;;;;;;5042653;28;20193;-71
2023/10/03 01:21:01;;;;;;;34.42;17.52;;;;;;;;;;5049936;28;20648;-71
2023/10/03 01:23:37;;;;;;;36.75;17.58;;;;;;;;;;5035939;28;20185;-71
2023/10/03 01:26:04;;;;;;;35.90;16.63;;;;;;;;;;5044477;28;20265;-71
2023/10/03 01:28:30;;;;;;;33.97;16.45;;;;;;;;;;5037484;28;20690;-70
2023/10/03 01:30:56;;;;;;;41.80;17.80;;;;;;;;;;5047882;28;20193;-70
2023/10/03 01:33:28;;;;;;;41.72;17.45;;;;;;;;;;5054629;28;20197;-69
2023/10/03 01:35:54;;;;;;;38.95;16.60;;;;;;;;;;5065502;28;20197;-71
2023/10/03 01:38:20;;;;;;;37.58;16.95;;;;;;;;;;5055157;28;20193;-70
2023/10/03 01:40:50;;;;;;;37.30;17.48;;;;;;;;;;5051589;28;20227;-70
2023/10/03 01:43:16;;;;;;;35.53;17.10;;;;;;;;;;5053011;28;20197;-70
2023/10/03 01:45:41;;;;;;;36.33;18.08;;;;;;;;;;5053819;28;20581;-71
2023/10/03 01:48:10;;;;;;;37.85;17.02;;;;;;;;;;5052144;28;20203;-71
2023/10/03 01:50:35;;;;;;;37.90;17.17;;;;;;;;;;5052428;28;20189;-68
2023/10/03 01:53:01;;;;;;;39.65;17.00;;;;;;;;;;5052686;28;20279;-69
2023/10/03 01:55:27;;;;;;;40.65;18.40;;;;;;;;;;5052017;28;20182;-71
2023/10/03 01:57:52;;;;;;;39.58;17.85;;;;;;;;;;5051486;28;20410;-69
2023/10/03 02:00:25;;;;;;;37.65;18.10;;;;;;;;;;5054889;28;20201;-72
2023/10/03 02:02:57;;;;;;;35.33;16.58;;;;;;;;;;5046836;28;20571;-71
2023/10/03 02:05:24;;;;;;;38.30;17.67;;;;;;;;;;5072185;28;20216;-70
2023/10/03 02:07:51;;;;;;;43.13;17.17;;;;;;;;;;5071578;28;20181;-69
2023/10/03 02:10:20;;;;;;;38.88;18.02;;;;;;;;;;5081003;28;20253;-71
2023/10/03 02:12:48;;;;;;;39.30;18.10;;;;;;;;;;5073012;28;20185;-70
2023/10/03 02:15:23;;;;;;;39.45;17.85;;;;;;;;;;5069529;28;20756;-70
2023/10/03 02:17:50;;;;;;;38.95;17.77;;;;;;;;;;5068979;28;20690;-70
2023/10/03 02:20:20;;;;;;;35.50;17.15;;;;;;;;;;5057020;28;20189;-69
2023/10/03 02:22:55;;;;;;;44.28;18.63;;;;;;;;;;5052300;28;20189;-71
2023/10/03 02:25:28;;;;;;;39.05;18.45;;;;;;;;;;5068392;28;20203;-71
2023/10/03 02:27:54;;;;;;;35.85;16.20;;;;;;;;;;5070019;28;20517;-70
2023/10/03 02:30:27;;;;;;;37.83;16.90;;;;;;;;;;5063367;28;20561;-71
2023/10/03 02:32:57;;;;;;;38.10;16.92;;;;;;;;;;5062775;28;20193;-71
2023/10/03 02:35:26;;;;;;;45.22;18.10;;;;;;;;;;5072662;28;20196;-72
2023/10/03 02:37:52;;;;;;;35.40;17.00;;;;;;;;;;5080684;28;20192;-70
2023/10/03 02:40:22;;;;;;;38.88;17.45;;;;;;;;;;5074094;28;20216;-71
2023/10/03 02:42:49;;;;;;;36.00;16.65;;;;;;;;;;5086326;28;20541;-68
2023/10/03 02:45:17;;;;;;;36.47;17.27;;;;;;;;;;5072523;28;20269;-70
2023/10/03 02:47:43;;;;;;;36.53;17.17;;;;;;;;;;5070160;28;20738;-70
2023/10/03 02:50:12;;;;;;;36.22;16.40;;;;;;;;;;5067924;28;20279;-69
2023/10/03 02:52:39;;;;;;;40.55;17.33;;;;;;;;;;5070621;28;20188;-70
2023/10/03 02:55:08;;;;;;;36.95;16.00;;;;;;;;;;5069667;28;20192;-70
2023/10/03 02:57:35;;;;;;;36.83;17.60;;;;;;;;;;5065816;28;20679;-71
2023/10/03 03:00:04;;;;;;;37.83;17.00;;;;;;;;;;5070380;28;20199;-69
2023/10/03 03:02:29;;;;;;;34.17;16.73;;;;;;;;;;5072462;28;20308;-70
2023/10/03 03:04:55;;;;;;;37.83;17.20;;;;;;;;;;5088786;28;20381;-71
2023/10/03 03:07:25;;;;;;;39.25;16.70;;;;;;;;;;5071601;28;20180;-71
2023/10/03 03:09:50;;;;;;;37.10;17.00;;;;;;;;;;5086055;28;20348;-69
2023/10/03 03:12:16;;;;;;;40.05;17.90;;;;;;;;;;5087923;28;20773;-69
2023/10/03 03:14:41;;;;;;;39.83;17.15;;;;;;;;;;5069688;28;20202;-71
2023/10/03 03:17:13;;;;;;;39.08;17.50;;;;;;;;;;5091210;28;20619;-68
2023/10/03 03:19:39;;;;;;;34.47;17.00;;;;;;;;;;5086543;28;20245;-68
2023/10/03 03:22:05;;;;;;;35.15;17.05;;;;;;;;;;5079293;28;20201;-72
2023/10/03 03:24:34;;;;;;;34.67;16.65;;;;;;;;;;5078356;28;20203;-68
2023/10/03 03:27:00;;;;;;;36.00;16.25;;;;;;;;;;5077635;28;20232;-69
2023/10/03 03:29:35;;;;;;;39.65;17.75;;;;;;;;;;5091298;28;20272;-72
2023/10/03 03:32:01;;;;;;;32.70;16.20;;;;;;;;;;5087856;28;20187;-68
2023/10/03 03:34:26;;;;;;;41.30;17.15;;;;;;;;;;5062381;28;20191;-69
2023/10/03 03:36:55;;;;;;;36.53;15.75;;;;;;;;;;5101193;28;20188;-68
2023/10/03 03:39:20;;;;;;;39.58;16.42;;;;;;;;;;5098743;28;20198;-73
2023/10/03 03:41:46;;;;;;;35.92;16.05;;;;;;;;;;5074623;28;20199;-69
2023/10/03 03:44:12;;;;;;;35.40;16.48;;;;;;;;;;5064357;28;20184;-73
2023/10/03 03:46:43;;;;;;;37.70;16.92;;;;;;;;;;5070066;28;20212;-70
2023/10/03 03:49:10;;;;;;;35.08;16.17;;;;;;;;;;5092937;28;20668;-67
2023/10/03 03:51:39;;;;;;;33.55;15.90;;;;;;;;;;5090031;28;20272;-71
2023/10/03 03:54:12;;;;;;;33.78;15.75;;;;;;;;;;5079656;28;20202;-68
2023/10/03 03:56:38;;;;;;;33.13;15.52;;;;;;;;;;5101015;28;20195;-67
2023/10/03 03:59:05;;;;;;;34.38;15.23;;;;;;;;;;5093107;28;20191;-70
2023/10/03 04:01:33;;;;;;;32.13;15.20;;;;;;;;;;5089081;28;20215;-70
2023/10/03 04:03:59;;;;;;;32.13;15.20;;;;;;;;;;5093522;28;20707;-67
2023/10/03 04:06:25;;;;;;;33.40;15.60;;;;;;;;;;5079555;28;20215;-69
2023/10/03 04:08:51;;;;;;;31.83;15.00;;;;;;;;;;5100500;28;20183;-67
2023/10/03 04:11:16;;;;;;;34.60;15.57;;;;;;;;;;5094146;28;20187;-70
2023/10/03 04:13:50;;;;;;;33.85;15.48;;;;;;;;;;5097167;28;20225;-68
2023/10/03 04:16:17;;;;;;;31.77;14.80;;;;;;;;;;5088904;28;20279;-71
2023/10/03 04:18:44;;;;;;;34.58;15.82;;;;;;;;;;5084343;28;20315;-69
2023/10/03 04:21:10;;;;;;;34.38;14.75;;;;;;;;;;5080785;28;20505;-70
2023/10/03 04:23:36;;;;;;;35.00;15.93;;;;;;;;;;5081518;28;20188;-69
2023/10/03 04:26:02;;;;;;;37.60;15.23;;;;;;;;;;5095300;28;20298;-70
2023/10/03 04:28:28;;;;;;;32.92;15.32;;;;;;;;;;5088831;28;20227;-68
2023/10/03 04:30:53;;;;;;;32.22;14.38;;;;;;;;;;5083443;28;20553;-68
2023/10/03 04:33:20;;;;;;;29.95;15.63;;;;;;;;;;5092079;28;20188;-72
2023/10/03 04:35:46;;;;;;;34.03;15.18;;;;;;;;;;5087665;28;20215;-72
2023/10/03 04:38:15;;;;;;;31.58;14.95;;;;;;;;;;5079498;28;20223;-70
2023/10/03 04:40:41;;;;;;;33.50;15.10;;;;;;;;;;5089480;28;20629;-72
2023/10/03 04:43:16;;;;;;;32.72;14.82;;;;;;;;;;5083487;28;20203;-73
2023/10/03 04:45:42;;;;;;;32.83;14.05;;;;;;;;;;5084353;28;20622;-71
2023/10/03 04:48:08;;;;;;;31.08;14.65;;;;;;;;;;5076424;28;20196;-69
2023/10/03 04:50:36;;;;;;;34.00;14.35;;;;;;;;;;5092067;28;20187;-70
2023/10/03 04:53:02;;;;;;;29.70;13.85;;;;;;;;;;5069885;28;20184;-70
2023/10/03 04:55:28;;;;;;;30.35;14.50;;;;;;;;;;5091392;28;20184;-68
2023/10/03 04:57:54;;;;;;;31.15;14.23;;;;;;;;;;5100437;28;20191;-72
2023/10/03 05:00:22;;;;;;;27.55;13.50;;;;;;;;;;5085926;28;20192;-75
2023/10/03 05:02:51;;;;;;;32.25;14.63;;;;;;;;;;5094331;28;20538;-74
2023/10/03 05:05:18;;;;;;;30.05;13.98;;;;;;;;;;5090948;28;20184;-72
2023/10/03 05:07:45;;;;;;;31.08;13.65;;;;;;;;;;5083008;28;20316;-72
2023/10/03 05:10:10;;;;;;;27.52;12.98;;;;;;;;;;5071184;28;20188;-69
2023/10/03 05:12:36;;;;;;;26.50;13.65;;;;;;;;;;5086019;28;20403;-73
2023/10/03 05:15:03;;;;;;;30.42;13.73;;;;;;;;;;5077223;28;20206;-73
2023/10/03 05:17:29;;;;;;;28.48;13.63;;;;;;;;;;5077318;28;20195;-74
2023/10/03 05:19:58;;;;;;;30.20;13.63;;;;;;;;;;5074754;28;20278;-72
2023/10/03 05:22:24;;;;;;;29.58;14.07;;;;;;;;;;5085506;28;20663;-72
2023/10/03 05:24:49;;;;;;;32.25;13.77;;;;;;;;;;5097310;28;20195;-72
2023/10/03 05:27:15;;;;;;;26.85;12.95;;;;;;;;;;5077728;28;20210;-73
2023/10/03 05:29:40;;;;;;;29.00;13.48;;;;;;;;;;5071973;28;20696;-72
2023/10/03 05:32:06;;;;;;;31.10;12.95;;;;;;;;;;5071729;28;20235;-73
2023/10/03 05:34:32;;;;;;;31.95;13.48;;;;;;;;;;5092887;28;20192;-74
2023/10/03 05:37:02;;;;;;;29.63;13.37;;;;;;;;;;4533392;28;10000950;-73
2023/10/03 05:39:28;;;;;;;26.67;12.23;;;;;;;;;;5069687;28;20233;-72
2023/10/03 05:41:57;;;;;;;25.42;12.02;;;;;;;;;;5095493;28;20192;-72
2023/10/03 05:44:25;;;;;;;24.75;11.15;;;;;;;;;;5088095;28;20245;-71
2023/10/03 05:46:55;;;;;;;24.33;11.68;;;;;;;;;;5071463;28;20230;-73
2023/10/03 05:49:22;;;;;;;24.20;11.57;;;;;;;;;;5089064;28;20255;-71
2023/10/03 05:51:47;;;;;;;26.48;11.23;;;;;;;;;;5100703;28;20335;-73
2023/10/03 05:54:12;;;;;;;21.80;9.63;;;;;;;;;;5098247;28;20246;-72
2023/10/03 05:56:38;;;;;;;24.38;10.85;;;;;;;;;;5079019;28;20187;-73
2023/10/03 05:59:03;;;;;;;22.35;9.95;;;;;;;;;;5088643;28;20180;-73
2023/10/03 06:01:28;;;;;;;23.85;10.65;;;;;;;;;;5091656;28;20524;-73
2023/10/03 06:03:56;;;;;;;21.33;10.30;;;;;;;;;;5045055;28;20234;-72
2023/10/03 06:06:22;;;;;;;24.27;10.38;;;;;;;;;;5041866;28;20394;-73
2023/10/03 06:08:49;;;;;;;21.10;9.43;;;;;;;;;;5046061;28;20775;-71
2023/10/03 06:11:17;;;;;;;23.60;9.55;;;;;;;;;;5064333;28;20181;-71
2023/10/03 06:13:44;;;;;;;20.65;9.27;;;;;;;;;;5051267;28;20276;-73
2023/10/03 06:16:12;;;;;;;20.35;9.65;;;;;;;;;;5049967;28;20197;-73
2023/10/03 06:18:41;;;;;;;19.20;8.90;;;;;;;;;;5027443;28;20573;-69
2023/10/03 06:21:10;;;;;;;15.15;8.30;;;;;;;;;;5036924;28;20260;-71
2023/10/03 06:23:37;;;;;;;18.35;8.35;;;;;;;;;;5035647;28;20186;-71
2023/10/03 06:26:03;;;;;;;18.88;7.70;;;;;;;;;;5045642;28;20216;-72
2023/10/03 06:28:28;;;;;;;17.33;6.22;;;;;;;;;;5037661;28;20194;-73
2023/10/03 06:30:54;;;;;;;10.93;5.88;;;;;;;;;;5030058;28;20483;-69
2023/10/03 06:33:20;;;;;;;14.00;5.65;;;;;;;;;;5046800;28;20656;-74
2023/10/03 06:35:47;;;;;;;9.68;5.15;;;;;;;;;;5051224;28;20658;-74
2023/10/03 06:38:15;;;;;;;9.60;5.15;;;;;;;;;;5056661;28;20218;-73
2023/10/03 06:40:41;;;;;;;10.18;5.32;;;;;;;;;;5061767;28;20333;-74
2023/10/03 06:43:06;;;;;;;9.93;4.80;;;;;;;;;;5068457;28;20659;-69
2023/10/03 06:45:31;;;;;;;11.98;4.60;;;;;;;;;;5056279;28;20206;-71
2023/10/03 06:48:02;;;;;;;10.23;4.05;;;;;;;;;;5065967;28;20189;-71
2023/10/03 06:50:27;;;;;;;11.73;4.40;;;;;;;;;;5053444;28;20218;-70
2023/10/03 06:52:53;;;;;;;10.27;4.95;;;;;;;;;;5045946;28;20248;-73
2023/10/03 06:55:18;;;;;;;12.23;4.28;;;;;;;;;;5047360;28;20189;-72
2023/10/03 06:57:43;;;;;;;10.05;4.43;;;;;;;;;;5052040;28;20204;-73
2023/10/03 07:00:13;;;;;;;11.55;4.22;;;;;;;;;;5042271;28;20200;-70
2023/10/03 07:02:39;;;;;;;9.75;4.43;;;;;;;;;;5045385;28;20232;-74
2023/10/03 07:05:05;;;;;;;8.80;4.00;;;;;;;;;;5069909;28;20187;-68
2023/10/03 07:07:34;;;;;;;12.60;4.88;;;;;;;;;;5073083;28;20655;-73
2023/10/03 07:09:59;;;;;;;8.52;4.50;;;;;;;;;;5092277;28;20272;-73
2023/10/03 07:12:25;;;;;;;8.65;3.97;;;;;;;;;;5087841;28;20813;-71
2023/10/03 07:14:50;;;;;;;9.60;4.43;;;;;;;;;;5092215;28;20184;-70
2023/10/03 07:17:16;;;;;;;10.60;3.60;;;;;;;;;;5061614;28;20327;-72
2023/10/03 07:19:46;;;;;;;7.03;3.55;;;;;;;;;;5084681;28;20317;-73
2023/10/03 07:22:11;;;;;;;7.85;3.88;;;;;;;;;;5079387;28;20278;-71
2023/10/03 07:24:39;;;;;;;10.35;3.97;;;;;;;;;;5090131;28;20267;-71
2023/10/03 07:27:07;;;;;;;6.03;3.17;;;;;;;;;;5075446;28;20546;-73
2023/10/03 07:29:32;;;;;;;12.88;4.15;;;;;;;;;;5071876;28;20264;-67
2023/10/03 07:31:58;;;;;;;14.48;3.75;;;;;;;;;;5083237;28;20196;-74
2023/10/03 07:34:23;;;;;;;6.65;3.10;;;;;;;;;;5090035;28;20230;-74
2023/10/03 07:36:48;;;;;;;7.18;3.83;;;;;;;;;;5076076;28;20187;-73
2023/10/03 07:39:15;;;;;;;6.32;3.38;;;;;;;;;;5094116;28;20220;-68
2023/10/03 07:41:40;;;;;;;8.77;3.72;;;;;;;;;;5074807;28;20185;-72
2023/10/03 07:44:06;;;;;;;11.35;3.80;;;;;;;;;;5073332;28;20253;-75
2023/10/03 07:46:32;;;;;;;9.27;3.67;;;;;;;;;;5090115;28;20208;-72
2023/10/03 07:48:57;;;;;;;8.80;3.72;;;;;;;;;;5087833;28;20591;-69
2023/10/03 07:51:29;;;;;;;8.65;4.25;;;;;;;;;;5074045;28;20193;-72
2023/10/03 07:53:57;;;;;;;9.35;3.88;;;;;;;;;;5075630;28;20184;-75
2023/10/03 07:56:33;;;;;;;8.13;3.45;;;;;;;;;;5072671;28;20191;-72
2023/10/03 07:59:01;;;;;;;10.82;4.00;;;;;;;;;;5062602;28;20226;-72
2023/10/03 08:01:27;;;;;;;8.55;4.18;;;;;;;;;;5053929;28;20305;-69
2023/10/03 08:03:54;;;;;;;8.95;4.13;;;;;;;;;;5079803;28;20232;-69
2023/10/03 08:06:27;;;;;;;11.43;4.28;;;;;;;;;;5082351;28;20199;-72
2023/10/03 08:08:59;;;;;;;7.32;3.97;;;;;;;;;;5069844;28;20209;-70
2023/10/03 08:11:31;;;;;;;13.15;4.53;;;;;;;;;;5081135;28;20233;-73
2023/10/03 08:13:57;;;;;;;6.70;3.70;;;;;;;;;;5099769;28;20266;-73
2023/10/03 08:16:23;;;;;;;7.97;4.13;;;;;;;;;;5093359;28;20232;-71
2023/10/03 08:18:58;;;;;;;8.10;3.63;;;;;;;;;;5087339;28;20311;-75
2023/10/03 08:21:28;;;;;;;12.18;3.65;;;;;;;;;;5049572;28;20200;-69
2023/10/03 08:23:55;;;;;;;7.32;4.25;;;;;;;;;;5081444;28;20191;-73
2023/10/03 08:26:21;;;;;;;9.10;4.03;;;;;;;;;;5057445;28;20285;-73
2023/10/03 08:28:59;;;;;;;8.63;3.90;;;;;;;;;;5096805;28;20195;-71
2023/10/03 08:31:28;;;;;;;8.50;3.67;;;;;;;;;;5083452;28;20219;-69
2023/10/03 08:33:56;;;;;;;7.10;3.58;;;;;;;;;;5071513;28;20536;-71
2023/10/03 08:36:23;;;;;;;10.52;3.67;;;;;;;;;;5062585;28;20188;-72
2023/10/03 08:38:49;;;;;;;6.85;2.97;;;;;;;;;;5079176;28;20511;-72
2023/10/03 08:41:25;;;;;;;6.65;3.00;;;;;;;;;;5077844;28;20184;-73
2023/10/03 08:43:56;;;;;;;7.90;3.22;;;;;;;;;;5076887;28;20218;-71
2023/10/03 08:46:28;;;;;;;6.68;2.88;;;;;;;;;;5085761;28;20199;-74
2023/10/03 08:49:00;;;;;;;4.43;2.42;;;;;;;;;;5066764;28;20211;-70
2023/10/03 08:51:32;;;;;;;7.47;2.55;;;;;;;;;;5067015;28;20192;-71
2023/10/03 08:54:10;;;;;;;6.90;2.80;;;;;;;;;;5077721;28;20186;-74
2023/10/03 08:56:39;;;;;;;5.82;2.53;;;;;;;;;;5083062;28;20268;-71
2023/10/03 08:59:09;;;;;;;8.63;2.78;;;;;;;;;;5084118;28;20197;-72
2023/10/03 09:01:43;;;;;;;8.13;2.45;;;;;;;;;;5081059;28;20203;-69
2023/10/03 09:04:15;;;;;;;7.30;2.40;;;;;;;;;;5082060;28;20252;-73
2023/10/03 09:06:45;;;;;;;4.25;2.00;;;;;;;;;;5091537;28;20222;-74
2023/10/03 09:09:16;;;;;;;5.15;2.33;;;;;;;;;;5088736;28;20190;-68
2023/10/03 09:11:44;;;;;;;4.78;1.98;;;;;;;;;;5053121;28;20192;-68
2023/10/03 09:14:12;;;;;;;8.73;2.58;;;;;;;;;;5067852;28;20219;-72
2023/10/03 09:16:41;;;;;;;6.68;1.48;;;;;;;;;;5084616;28;20259;-73
2023/10/03 09:19:13;;;;;;;5.22;1.67;;;;;;;;;;5069830;28;20270;-70
2023/10/03 09:21:38;;;;;;;4.53;1.42;;;;;;;;;;5080855;28;20199;-72
2023/10/03 09:24:14;;;;;;;6.45;1.90;;;;;;;;;;5072469;28;20204;-71
2023/10/03 09:26:46;;;;;;;7.82;2.30;;;;;;;;;;5072975;28;20611;-72
2023/10/03 09:29:29;;;;;;;11.25;2.67;;;;;;;;;;5071499;28;20197;-71
2023/10/03 09:31:57;;;;;;;7.22;2.08;;;;;;;;;;5062055;28;20200;-73
2023/10/03 09:34:23;;;;;;;8.32;2.63;;;;;;;;;;5069213;28;20196;-73
2023/10/03 09:36:48;;;;;;;9.90;2.25;;;;;;;;;;5090553;28;20181;-72
2023/10/03 09:39:23;;;;;;;8.75;1.52;;;;;;;;;;5078421;28;20188;-73
2023/10/03 09:41:52;;;;;;;5.40;1.42;;;;;;;;;;5080539;28;20191;-74
2023/10/03 09:44:19;;;;;;;6.03;1.20;;;;;;;;;;5058578;28;20177;-72
2023/10/03 09:46:52;;;;;;;6.80;1.10;;;;;;;;;;5075907;28;20890;-73
2023/10/03 09:49:18;;;;;;;5.55;1.30;;;;;;;;;;5072871;28;20180;-73
2023/10/03 09:51:47;;;;;;;6.22;1.08;;;;;;;;;;5087372;28;20351;-74
2023/10/03 09:54:24;;;;;;;5.85;1.10;;;;;;;;;;5072064;28;20193;-73
2023/10/03 09:56:51;;;;;;;7.13;1.30;;;;;;;;;;5050545;28;20254;-74
2023/10/03 09:59:21;;;;;;;3.85;1.55;;;;;;;;;;5080120;28;20210;-72
2023/10/03 10:01:47;;;;;;;7.22;1.25;;;;;;;;;;5081224;28;20745;-75
2023/10/03 10:04:15;;;;;;;5.80;1.25;;;;;;;;;;5089175;28;20277;-71
2023/10/03 10:07:14;;;;;;;5.57;1.20;;;;;;;;;;5076128;28;20219;-73
2023/10/03 10:09:47;;;;;;;6.30;1.25;;;;;;;;;;5079744;28;20208;-74
2023/10/03 10:12:21;;;;;;;3.70;0.88;;;;;;;;;;5066109;28;20189;-72
2023/10/03 10:17:46;;;;;;;3.10;0.70;;;;;;;;;;5085481;28;20583;-73
2023/10/03 10:20:37;;;;;;;6.65;0.73;;;;;;;;;;5074935;28;20179;-73
2023/10/03 10:23:12;;;;;;;4.82;0.85;;;;;;;;;;5075832;28;20297;-73
2023/10/03 10:25:42;;;;;;;6.07;0.68;;;;;;;;;;5073804;28;20212;-73
2023/10/03 10:28:24;;;;;;;2.95;0.60;;;;;;;;;;5058381;28;20337;-71
2023/10/03 10:31:15;;;;;;;2.67;0.60;;;;;;;;;;5066148;28;20212;-71
2023/10/03 10:33:41;;;;;;;5.50;0.77;;;;;;;;;;5102124;28;20176;-73
2023/10/03 10:36:10;;;;;;;4.75;0.73;;;;;;;;;;5083125;28;20240;-73
2023/10/03 10:38:35;;;;;;;3.95;0.47;;;;;;;;;;5087747;28;20224;-73
2023/10/03 10:41:22;;;;;;;3.83;0.75;;;;;;;;;;5095928;28;20831;-72
2023/10/03 10:44:07;;;;;;;3.42;0.50;;;;;;;;;;5075398;28;20287;-73
2023/10/03 10:46:35;;;;;;;7.22;0.57;;;;;;;;;;5086003;28;20203;-73
2023/10/03 10:49:06;;;;;;;1.52;0.50;;;;;;;;;;5093122;28;20195;-74
2023/10/03 10:51:32;;;;;;;0.88;0.30;;;;;;;;;;5084150;28;20203;-71
2023/10/03 10:54:00;;;;;;;3.13;0.57;;;;;;;;;;5095562;28;20196;-72
2023/10/03 10:56:28;;;;;;;2.17;0.63;;;;;;;;;;5079072;28;20183;-73
2023/10/03 10:59:01;;;;;;;2.72;0.50;;;;;;;;;;5063912;28;20195;-74
2023/10/03 11:01:27;;;;;;;2.00;0.70;;;;;;;;;;5072803;28;20266;-75
2023/10/03 11:03:53;;;;;;;4.22;0.70;;;;;;;;;;5063912;28;20216;-74
2023/10/03 11:06:19;;;;;;;3.38;0.47;;;;;;;;;;5064668;28;20274;-72
2023/10/03 11:08:47;;;;;;;1.08;0.40;;;;;;;;;;5063395;28;20580;-74
2023/10/03 11:11:12;;;;;;;3.63;0.88;;;;;;;;;;5048379;28;20181;-71
2023/10/03 11:13:50;;;;;;;3.83;0.60;;;;;;;;;;5070184;28;20212;-73
2023/10/03 11:16:23;;;;;;;3.53;0.65;;;;;;;;;;5061387;28;20208;-73
2023/10/03 11:18:51;;;;;;;2.47;0.40;;;;;;;;;;5054715;28;20693;-74
2023/10/03 11:21:17;;;;;;;4.82;0.63;;;;;;;;;;5064160;28;20318;-72
2023/10/03 11:24:19;;;;;;;3.97;0.35;;;;;;;;;;5045197;28;20592;-74
2023/10/03 11:26:51;;;;;;;1.40;0.40;;;;;;;;;;5080864;28;20211;-74
2023/10/03 11:29:34;;;;;;;1.10;0.38;;;;;;;;;;5075872;28;20235;-73
2023/10/03 11:32:01;;;;;;;4.80;0.70;;;;;;;;;;5074051;28;20184;-71
2023/10/03 11:34:35;;;;;;;1.70;0.30;;;;;;;;;;5065982;28;20189;-74
2023/10/03 11:37:04;;;;;;;4.85;0.50;;;;;;;;;;5052470;28;20766;-73
2023/10/03 11:39:37;;;;;;;4.13;0.60;;;;;;;;;;5040464;28;20188;-73
2023/10/03 11:42:26;;;;;;;2.72;0.35;;;;;;;;;;5069451;28;20279;-74
2023/10/03 11:44:58;;;;;;;1.00;0.40;;;;;;;;;;5064336;28;20228;-71
2023/10/03 11:47:24;;;;;;;2.13;0.52;;;;;;;;;;5052748;28;20205;-70
2023/10/03 11:49:50;;;;;;;3.42;0.70;;;;;;;;;;5058968;28;20207;-74
2023/10/03 11:52:15;;;;;;;6.43;0.55;;;;;;;;;;5068873;28;20291;-74
2023/10/03 11:54:40;;;;;;;2.65;0.60;;;;;;;;;;5056955;28;20429;-71
2023/10/03 11:57:06;;;;;;;2.80;0.50;;;;;;;;;;5062120;28;20675;-74
2023/10/03 11:59:31;;;;;;;3.17;0.70;;;;;;;;;;5063165;28;20536;-74
2023/10/03 12:01:56;;;;;;;3.13;0.57;;;;;;;;;;5058043;28;20214;-72
2023/10/03 12:04:23;;;;;;;6.00;0.60;;;;;;;;;;5030002;28;20229;-72
2023/10/03 12:06:49;;;;;;;2.72;0.70;;;;;;;;;;5048920;28;20205;-74
2023/10/03 12:09:17;;;;;;;4.35;0.50;;;;;;;;;;5010719;28;20559;-75
2023/10/03 12:11:43;;;;;;;3.75;0.63;;;;;;;;;;5048965;28;20189;-73
2023/10/03 12:14:11;;;;;;;5.88;1.08;;;;;;;;;;5046123;28;20189;-73
2023/10/03 12:16:38;;;;;;;2.28;0.75;;;;;;;;;;5032558;28;20201;-74
2023/10/03 12:19:07;;;;;;;4.20;1.48;;;;;;;;;;5039470;28;20189;-75
2023/10/03 12:21:33;;;;;;;5.68;1.17;;;;;;;;;;5034349;28;20193;-76
2023/10/03 12:24:01;;;;;;;7.65;1.75;;;;;;;;;;5049148;28;20244;-75
2023/10/03 12:26:26;;;;;;;5.40;1.80;;;;;;;;;;5047949;28;20680;-75
2023/10/03 12:28:56;;;;;;;6.07;2.00;;;;;;;;;;5045763;28;20246;-73
2023/10/03 12:31:26;;;;;;;6.95;1.85;;;;;;;;;;5040608;28;20628;-74
2023/10/03 12:33:55;;;;;;;8.43;2.50;;;;;;;;;;5036303;28;21344;-74
2023/10/03 12:36:21;;;;;;;5.75;2.15;;;;;;;;;;5042517;28;20661;-73
2023/10/03 12:38:47;;;;;;;10.50;2.13;;;;;;;;;;5027429;28;20328;-73
2023/10/03 12:41:13;;;;;;;6.63;2.10;;;;;;;;;;5038771;28;20598;-73
2023/10/03 12:43:46;;;;;;;5.65;2.67;;;;;;;;;;5046173;28;20247;-73
2023/10/03 12:46:12;;;;;;;7.43;2.28;;;;;;;;;;5031189;28;20689;-73
2023/10/03 12:48:38;;;;;;;7.75;2.10;;;;;;;;;;5028592;28;20204;-74
2023/10/03 12:51:04;;;;;;;10.20;2.05;;;;;;;;;;5042968;28;20212;-74
2023/10/03 12:53:36;;;;;;;11.38;2.65;;;;;;;;;;5044112;28;20189;-74
2023/10/03 12:56:08;;;;;;;8.73;2.10;;;;;;;;;;5040276;28;20190;-76
2023/10/03 12:58:34;;;;;;;8.65;2.65;;;;;;;;;;5039135;28;20194;-76
2023/10/03 13:00:59;;;;;;;8.13;2.30;;;;;;;;;;5043958;28;20268;-73
2023/10/03 13:03:25;;;;;;;9.55;2.55;;;;;;;;;;5056436;28;20231;-74
2023/10/03 13:05:52;;;;;;;9.05;1.98;;;;;;;;;;5086852;28;20204;-73
2023/10/03 13:08:18;;;;;;;10.30;2.33;;;;;;;;;;5078329;28;20184;-73
2023/10/03 13:10:43;;;;;;;6.80;1.98;;;;;;;;;;5070910;28;20200;-76
2023/10/03 13:13:09;;;;;;;8.05;2.53;;;;;;;;;;5093587;28;20183;-75
2023/10/03 13:15:35;;;;;;;14.50;2.38;;;;;;;;;;5087721;28;20188;-74
2023/10/03 13:18:00;;;;;;;10.18;2.38;;;;;;;;;;5082342;28;20180;-74
2023/10/03 13:20:27;;;;;;;9.27;2.97;;;;;;;;;;5091048;28;20196;-73
2023/10/03 13:22:53;;;;;;;9.38;2.67;;;;;;;;;;5086108;28;20180;-75
2023/10/03 13:25:22;;;;;;;11.95;2.42;;;;;;;;;;5056511;28;20272;-74
2023/10/03 13:27:49;;;;;;;10.88;2.45;;;;;;;;;;5078701;28;20185;-75
2023/10/03 13:30:19;;;;;;;8.90;2.22;;;;;;;;;;5067428;28;20173;-73
2023/10/03 13:32:49;;;;;;;8.68;2.45;;;;;;;;;;5094645;28;20252;-73
2023/10/03 13:35:15;;;;;;;8.88;2.70;;;;;;;;;;5092739;28;20184;-76
2023/10/03 13:37:40;;;;;;;9.77;2.50;;;;;;;;;;5080220;28;20588;-74
2023/10/03 13:40:07;;;;;;;12.38;2.58;;;;;;;;;;5072608;28;20210;-73
2023/10/03 13:42:33;;;;;;;13.07;2.38;;;;;;;;;;5101585;28;20241;-76
2023/10/03 13:44:58;;;;;;;8.77;2.20;;;;;;;;;;5087858;28;20239;-74
2023/10/03 13:47:25;;;;;;;10.38;2.42;;;;;;;;;;5076363;28;20287;-75
2023/10/03 13:49:51;;;;;;;14.30;2.70;;;;;;;;;;5094774;28;20191;-76
2023/10/03 13:52:16;;;;;;;8.55;2.33;;;;;;;;;;5074747;28;20546;-72
2023/10/03 13:54:43;;;;;;;9.70;2.90;;;;;;;;;;5092696;28;20199;-75
2023/10/03 13:57:11;;;;;;;7.15;1.92;;;;;;;;;;5088372;28;20184;-74
2023/10/03 13:59:37;;;;;;;11.13;2.85;;;;;;;;;;5073770;28;20604;-73
2023/10/03 14:02:03;;;;;;;10.60;2.10;;;;;;;;;;5086447;28;20209;-74
2023/10/03 14:04:29;;;;;;;5.93;2.20;;;;;;;;;;5053488;28;20246;-74
2023/10/03 14:06:57;;;;;;;10.88;2.63;;;;;;;;;;5083991;28;20203;-74
2023/10/03 14:09:28;;;;;;;7.68;2.35;;;;;;;;;;5072835;28;20526;-74
2023/10/03 14:11:57;;;;;;;11.63;2.70;;;;;;;;;;5089634;28;20200;-75
2023/10/03 14:14:25;;;;;;;10.73;2.38;;;;;;;;;;5099790;28;20184;-75
2023/10/03 14:16:56;;;;;;;9.73;2.50;;;;;;;;;;5085316;28;20661;-74
2023/10/03 14:19:23;;;;;;;9.55;2.47;;;;;;;;;;5059156;28;20189;-74
2023/10/03 14:21:48;;;;;;;11.35;2.50;;;;;;;;;;5072685;28;20694;-74
2023/10/03 14:24:14;;;;;;;6.97;2.05;;;;;;;;;;5074116;28;20270;-74
2023/10/03 14:26:39;;;;;;;8.23;2.33;;;;;;;;;;5074191;28;20287;-72
2023/10/03 14:29:05;;;;;;;8.30;2.13;;;;;;;;;;5086994;28;20204;-74
2023/10/03 14:31:31;;;;;;;11.35;2.30;;;;;;;;;;5056670;28;20196;-72
2023/10/03 14:33:56;;;;;;;6.30;2.15;;;;;;;;;;5070157;28;20196;-74
2023/10/03 14:36:22;;;;;;;9.05;2.10;;;;;;;;;;5071749;28;20195;-73
2023/10/03 14:38:48;;;;;;;9.07;1.98;;;;;;;;;;5089680;28;20234;-74
2023/10/03 14:41:15;;;;;;;9.65;2.15;;;;;;;;;;5051439;28;20185;-73